sensor_id;sensor_type;location;lat;lon;timestamp;temperature;humidity
3069;DHT22;1545;51.728;8.796;2023-04-24T00:02:11;10.90;87.10
3069;DHT22;1545;51.728;8.796;2023-04-24T00:04:38;10.80;87.20
3069;DHT22;1545;51.728;8.796;2023-04-24T00:07:06;10.70;87.60
3069;DHT22;1545;51.728;8.796;2023-04-24T00:09:33;10.70;87.70
3069;DHT22;1545;51.728;8.796;2023-04-24T00:11:58;10.60;87.70
3069;DHT22;1545;51.728;8.796;2023-04-24T00:14:25;10.60;87.90
3069;DHT22;1545;51.728;8.796;2023-04-24T00:16:50;10.50;87.90
3069;DHT22;1545;51.728;8.796;2023-04-24T00:19:16;10.50;87.80
3069;DHT22;1545;51.728;8.796;2023-04-24T00:21:41;10.40;88.00
3069;DHT22;1545;51.728;8.796;2023-04-24T00:24:07;10.40;88.10
3069;DHT22;1545;51.728;8.796;2023-04-24T00:26:34;10.40;88.00
3069;DHT22;1545;51.728;8.796;2023-04-24T00:29:00;10.40;88.20
3069;DHT22;1545;51.728;8.796;2023-04-24T00:31:25;10.30;88.10
3069;DHT22;1545;51.728;8.796;2023-04-24T00:33:51;10.20;88.20
3069;DHT22;1545;51.728;8.796;2023-04-24T00:36:16;10.20;88.50
3069;DHT22;1545;51.728;8.796;2023-04-24T00:38:44;10.10;88.60
3069;DHT22;1545;51.728;8.796;2023-04-24T00:41:10;10.10;88.90
3069;DHT22;1545;51.728;8.796;2023-04-24T00:43:35;10.00;89.20
3069;DHT22;1545;51.728;8.796;2023-04-24T00:46:01;9.90;89.40
3069;DHT22;1545;51.728;8.796;2023-04-24T00:48:27;9.90;89.60
3069;DHT22;1545;51.728;8.796;2023-04-24T00:50:53;9.90;89.90
3069;DHT22;1545;51.728;8.796;2023-04-24T00:53:19;9.80;90.00
3069;DHT22;1545;51.728;8.796;2023-04-24T00:55:44;9.90;89.90
3069;DHT22;1545;51.728;8.796;2023-04-24T00:58:10;9.90;89.90
3069;DHT22;1545;51.728;8.796;2023-04-24T01:00:36;9.90;89.40
3069;DHT22;1545;51.728;8.796;2023-04-24T01:03:04;9.90;89.30
3069;DHT22;1545;51.728;8.796;2023-04-24T01:05:31;9.90;89.40
3069;DHT22;1545;51.728;8.796;2023-04-24T01:07:58;9.90;89.70
3069;DHT22;1545;51.728;8.796;2023-04-24T01:10:24;9.90;89.60
3069;DHT22;1545;51.728;8.796;2023-04-24T01:12:51;9.90;89.70
3069;DHT22;1545;51.728;8.796;2023-04-24T01:15:17;10.10;89.20
3069;DHT22;1545;51.728;8.796;2023-04-24T01:17:42;10.10;88.90
3069;DHT22;1545;51.728;8.796;2023-04-24T01:20:08;10.30;88.60
3069;DHT22;1545;51.728;8.796;2023-04-24T01:22:34;10.40;88.10
3069;DHT22;1545;51.728;8.796;2023-04-24T01:25:00;10.50;87.70
3069;DHT22;1545;51.728;8.796;2023-04-24T01:27:25;10.60;87.30
3069;DHT22;1545;51.728;8.796;2023-04-24T01:29:51;10.70;86.60
3069;DHT22;1545;51.728;8.796;2023-04-24T01:32:17;10.80;86.30
3069;DHT22;1545;51.728;8.796;2023-04-24T01:34:44;10.90;85.80
3069;DHT22;1545;51.728;8.796;2023-04-24T01:37:10;10.90;85.50
3069;DHT22;1545;51.728;8.796;2023-04-24T01:39:35;11.00;85.30
3069;DHT22;1545;51.728;8.796;2023-04-24T01:42:01;11.00;85.10
3069;DHT22;1545;51.728;8.796;2023-04-24T01:44:28;11.00;85.10
3069;DHT22;1545;51.728;8.796;2023-04-24T01:46:54;11.00;84.90
3069;DHT22;1545;51.728;8.796;2023-04-24T01:49:20;11.00;84.80
3069;DHT22;1545;51.728;8.796;2023-04-24T01:51:46;11.10;84.60
3069;DHT22;1545;51.728;8.796;2023-04-24T01:54:12;11.10;84.10
3069;DHT22;1545;51.728;8.796;2023-04-24T01:56:41;11.00;84.00
3069;DHT22;1545;51.728;8.796;2023-04-24T01:59:09;10.90;84.30
3069;DHT22;1545;51.728;8.796;2023-04-24T02:01:36;10.80;84.50
3069;DHT22;1545;51.728;8.796;2023-04-24T02:04:02;10.80;84.70
3069;DHT22;1545;51.728;8.796;2023-04-24T02:06:28;10.80;84.90
3069;DHT22;1545;51.728;8.796;2023-04-24T02:08:53;10.80;84.70
3069;DHT22;1545;51.728;8.796;2023-04-24T02:11:19;10.80;84.70
3069;DHT22;1545;51.728;8.796;2023-04-24T02:13:44;10.80;84.60
3069;DHT22;1545;51.728;8.796;2023-04-24T02:16:10;10.90;84.30
3069;DHT22;1545;51.728;8.796;2023-04-24T02:18:36;10.90;84.00
3069;DHT22;1545;51.728;8.796;2023-04-24T02:21:02;11.00;84.20
3069;DHT22;1545;51.728;8.796;2023-04-24T02:23:27;11.00;84.00
3069;DHT22;1545;51.728;8.796;2023-04-24T02:25:53;10.90;84.30
3069;DHT22;1545;51.728;8.796;2023-04-24T02:28:19;10.90;84.30
3069;DHT22;1545;51.728;8.796;2023-04-24T02:30:44;10.90;84.40
3069;DHT22;1545;51.728;8.796;2023-04-24T02:33:11;10.80;84.40
3069;DHT22;1545;51.728;8.796;2023-04-24T02:35:36;10.70;84.50
3069;DHT22;1545;51.728;8.796;2023-04-24T02:38:02;10.70;84.80
3069;DHT22;1545;51.728;8.796;2023-04-24T02:40:28;10.50;85.20
3069;DHT22;1545;51.728;8.796;2023-04-24T02:42:54;10.50;85.50
3069;DHT22;1545;51.728;8.796;2023-04-24T02:45:19;10.50;85.90
3069;DHT22;1545;51.728;8.796;2023-04-24T02:47:44;10.40;86.00
3069;DHT22;1545;51.728;8.796;2023-04-24T02:50:10;10.40;86.30
3069;DHT22;1545;51.728;8.796;2023-04-24T02:52:36;10.50;86.40
3069;DHT22;1545;51.728;8.796;2023-04-24T02:55:01;10.50;86.50
3069;DHT22;1545;51.728;8.796;2023-04-24T02:57:27;10.60;86.60
3069;DHT22;1545;51.728;8.796;2023-04-24T02:59:52;10.60;86.60
3069;DHT22;1545;51.728;8.796;2023-04-24T03:02:18;10.60;86.60
3069;DHT22;1545;51.728;8.796;2023-04-24T03:04:43;10.70;86.40
3069;DHT22;1545;51.728;8.796;2023-04-24T03:07:09;10.70;86.50
3069;DHT22;1545;51.728;8.796;2023-04-24T03:09:34;10.70;86.50
3069;DHT22;1545;51.728;8.796;2023-04-24T03:12:00;10.70;86.70
3069;DHT22;1545;51.728;8.796;2023-04-24T03:14:25;10.70;86.70
3069;DHT22;1545;51.728;8.796;2023-04-24T03:16:51;10.70;86.70
3069;DHT22;1545;51.728;8.796;2023-04-24T03:19:16;10.80;86.70
3069;DHT22;1545;51.728;8.796;2023-04-24T03:21:42;10.80;86.60
3069;DHT22;1545;51.728;8.796;2023-04-24T03:24:08;10.80;86.40
3069;DHT22;1545;51.728;8.796;2023-04-24T03:26:34;10.90;86.40
3069;DHT22;1545;51.728;8.796;2023-04-24T03:29:00;10.90;86.20
3069;DHT22;1545;51.728;8.796;2023-04-24T03:31:26;11.00;86.10
3069;DHT22;1545;51.728;8.796;2023-04-24T03:33:51;11.00;86.10
3069;DHT22;1545;51.728;8.796;2023-04-24T03:36:17;11.10;86.10
3069;DHT22;1545;51.728;8.796;2023-04-24T03:38:44;11.10;86.20
3069;DHT22;1545;51.728;8.796;2023-04-24T03:41:10;11.20;86.30
3069;DHT22;1545;51.728;8.796;2023-04-24T03:43:36;11.20;86.30
3069;DHT22;1545;51.728;8.796;2023-04-24T03:46:01;11.20;86.30
3069;DHT22;1545;51.728;8.796;2023-04-24T03:48:27;11.30;86.40
3069;DHT22;1545;51.728;8.796;2023-04-24T03:50:52;11.30;86.40
3069;DHT22;1545;51.728;8.796;2023-04-24T03:53:18;11.30;86.30
3069;DHT22;1545;51.728;8.796;2023-04-24T03:55:45;11.40;86.30
3069;DHT22;1545;51.728;8.796;2023-04-24T03:58:10;11.40;86.20
3069;DHT22;1545;51.728;8.796;2023-04-24T04:00:36;11.40;86.20
3069;DHT22;1545;51.728;8.796;2023-04-24T04:03:03;11.40;86.20
3069;DHT22;1545;51.728;8.796;2023-04-24T04:05:28;11.40;86.30
3069;DHT22;1545;51.728;8.796;2023-04-24T04:07:54;11.40;86.30
3069;DHT22;1545;51.728;8.796;2023-04-24T04:10:20;11.40;86.40
3069;DHT22;1545;51.728;8.796;2023-04-24T04:12:46;11.40;86.40
3069;DHT22;1545;51.728;8.796;2023-04-24T04:15:11;11.50;86.50
3069;DHT22;1545;51.728;8.796;2023-04-24T04:17:37;11.50;86.60
3069;DHT22;1545;51.728;8.796;2023-04-24T04:20:03;11.50;86.70
3069;DHT22;1545;51.728;8.796;2023-04-24T04:22:34;11.40;87.10
3069;DHT22;1545;51.728;8.796;2023-04-24T04:24:59;11.20;88.00
3069;DHT22;1545;51.728;8.796;2023-04-24T04:27:25;11.00;89.10
3069;DHT22;1545;51.728;8.796;2023-04-24T04:29:50;10.90;90.50
3069;DHT22;1545;51.728;8.796;2023-04-24T04:32:16;10.70;91.80
3069;DHT22;1545;51.728;8.796;2023-04-24T04:34:42;10.60;92.70
3069;DHT22;1545;51.728;8.796;2023-04-24T04:37:08;10.40;93.40
3069;DHT22;1545;51.728;8.796;2023-04-24T04:39:34;10.40;94.00
3069;DHT22;1545;51.728;8.796;2023-04-24T04:41:59;10.20;94.40
3069;DHT22;1545;51.728;8.796;2023-04-24T04:44:25;10.20;94.60
3069;DHT22;1545;51.728;8.796;2023-04-24T04:46:53;10.20;94.60
3069;DHT22;1545;51.728;8.796;2023-04-24T04:49:21;10.30;94.80
3069;DHT22;1545;51.728;8.796;2023-04-24T04:51:49;10.40;94.80
3069;DHT22;1545;51.728;8.796;2023-04-24T04:54:14;10.50;94.70
3069;DHT22;1545;51.728;8.796;2023-04-24T04:56:41;10.50;94.60
3069;DHT22;1545;51.728;8.796;2023-04-24T04:59:06;10.50;94.50
3069;DHT22;1545;51.728;8.796;2023-04-24T05:01:32;10.50;94.40
3069;DHT22;1545;51.728;8.796;2023-04-24T05:03:57;10.50;94.10
3069;DHT22;1545;51.728;8.796;2023-04-24T05:06:22;10.50;93.50
3069;DHT22;1545;51.728;8.796;2023-04-24T05:08:48;10.40;93.10
3069;DHT22;1545;51.728;8.796;2023-04-24T05:11:14;10.40;92.80
3069;DHT22;1545;51.728;8.796;2023-04-24T05:13:40;10.50;91.00
3069;DHT22;1545;51.728;8.796;2023-04-24T05:16:06;10.50;89.90
3069;DHT22;1545;51.728;8.796;2023-04-24T05:18:31;10.40;88.30
3069;DHT22;1545;51.728;8.796;2023-04-24T05:20:57;10.40;88.10
3069;DHT22;1545;51.728;8.796;2023-04-24T05:23:22;10.30;87.40
3069;DHT22;1545;51.728;8.796;2023-04-24T05:25:48;10.30;87.00
3069;DHT22;1545;51.728;8.796;2023-04-24T05:28:13;10.30;86.50
3069;DHT22;1545;51.728;8.796;2023-04-24T05:30:39;10.20;86.10
3069;DHT22;1545;51.728;8.796;2023-04-24T05:33:04;10.20;85.50
3069;DHT22;1545;51.728;8.796;2023-04-24T05:35:30;10.20;85.50
3069;DHT22;1545;51.728;8.796;2023-04-24T05:37:56;10.20;84.70
3069;DHT22;1545;51.728;8.796;2023-04-24T05:40:22;10.20;84.90
3069;DHT22;1545;51.728;8.796;2023-04-24T05:42:47;10.30;85.00
3069;DHT22;1545;51.728;8.796;2023-04-24T05:45:13;10.40;84.90
3069;DHT22;1545;51.728;8.796;2023-04-24T05:47:42;10.40;84.40
3069;DHT22;1545;51.728;8.796;2023-04-24T05:50:09;10.50;83.90
3069;DHT22;1545;51.728;8.796;2023-04-24T05:52:35;10.50;84.10
3069;DHT22;1545;51.728;8.796;2023-04-24T05:55:00;10.50;83.80
3069;DHT22;1545;51.728;8.796;2023-04-24T05:57:26;10.50;84.20
3069;DHT22;1545;51.728;8.796;2023-04-24T05:59:51;10.80;83.30
3069;DHT22;1545;51.728;8.796;2023-04-24T06:02:17;11.00;82.50
3069;DHT22;1545;51.728;8.796;2023-04-24T06:04:42;11.10;82.30
3069;DHT22;1545;51.728;8.796;2023-04-24T06:07:11;11.30;81.90
3069;DHT22;1545;51.728;8.796;2023-04-24T06:09:36;11.70;81.30
3069;DHT22;1545;51.728;8.796;2023-04-24T06:12:02;11.90;80.10
3069;DHT22;1545;51.728;8.796;2023-04-24T06:14:27;12.10;80.20
3069;DHT22;1545;51.728;8.796;2023-04-24T06:16:53;12.10;79.00
3069;DHT22;1545;51.728;8.796;2023-04-24T06:19:18;12.10;78.80
3069;DHT22;1545;51.728;8.796;2023-04-24T06:21:44;12.30;79.20
3069;DHT22;1545;51.728;8.796;2023-04-24T06:24:10;12.40;78.30
3069;DHT22;1545;51.728;8.796;2023-04-24T06:26:36;12.90;78.20
3069;DHT22;1545;51.728;8.796;2023-04-24T06:29:01;13.80;77.30
3069;DHT22;1545;51.728;8.796;2023-04-24T06:31:27;14.30;75.60
3069;DHT22;1545;51.728;8.796;2023-04-24T06:33:52;14.00;76.50
3069;DHT22;1545;51.728;8.796;2023-04-24T06:36:18;13.90;76.80
3069;DHT22;1545;51.728;8.796;2023-04-24T06:38:43;13.80;77.20
3069;DHT22;1545;51.728;8.796;2023-04-24T06:41:10;13.10;77.50
3069;DHT22;1545;51.728;8.796;2023-04-24T06:43:35;12.70;78.60
3069;DHT22;1545;51.728;8.796;2023-04-24T06:46:01;12.40;79.30
3069;DHT22;1545;51.728;8.796;2023-04-24T06:48:28;12.00;79.50
3069;DHT22;1545;51.728;8.796;2023-04-24T06:50:54;11.70;80.10
3069;DHT22;1545;51.728;8.796;2023-04-24T06:53:19;11.60;80.10
3069;DHT22;1545;51.728;8.796;2023-04-24T06:55:45;11.40;80.30
3069;DHT22;1545;51.728;8.796;2023-04-24T06:58:11;11.40;80.60
3069;DHT22;1545;51.728;8.796;2023-04-24T07:00:37;11.40;80.70
3069;DHT22;1545;51.728;8.796;2023-04-24T07:03:03;11.50;80.60
3069;DHT22;1545;51.728;8.796;2023-04-24T07:05:30;11.60;80.40
3069;DHT22;1545;51.728;8.796;2023-04-24T07:07:56;11.70;80.10
3069;DHT22;1545;51.728;8.796;2023-04-24T07:10:23;11.80;79.90
3069;DHT22;1545;51.728;8.796;2023-04-24T07:12:49;11.80;79.80
3069;DHT22;1545;51.728;8.796;2023-04-24T07:15:15;11.80;79.80
3069;DHT22;1545;51.728;8.796;2023-04-24T07:17:41;11.70;79.90
3069;DHT22;1545;51.728;8.796;2023-04-24T07:20:10;11.70;79.40
3069;DHT22;1545;51.728;8.796;2023-04-24T07:22:36;11.80;79.40
3069;DHT22;1545;51.728;8.796;2023-04-24T07:25:02;11.90;79.40
3069;DHT22;1545;51.728;8.796;2023-04-24T07:27:28;11.90;79.70
3069;DHT22;1545;51.728;8.796;2023-04-24T07:29:53;12.10;79.20
3069;DHT22;1545;51.728;8.796;2023-04-24T07:32:19;12.20;78.40
3069;DHT22;1545;51.728;8.796;2023-04-24T07:34:44;12.40;78.70
3069;DHT22;1545;51.728;8.796;2023-04-24T07:37:10;12.40;78.30
3069;DHT22;1545;51.728;8.796;2023-04-24T07:39:36;12.50;77.90
3069;DHT22;1545;51.728;8.796;2023-04-24T07:42:01;12.50;77.80
3069;DHT22;1545;51.728;8.796;2023-04-24T07:44:27;12.30;77.70
3069;DHT22;1545;51.728;8.796;2023-04-24T07:46:53;12.40;77.90
3069;DHT22;1545;51.728;8.796;2023-04-24T07:49:19;12.30;78.10
3069;DHT22;1545;51.728;8.796;2023-04-24T07:51:45;12.30;77.80
3069;DHT22;1545;51.728;8.796;2023-04-24T07:54:10;12.60;77.90
3069;DHT22;1545;51.728;8.796;2023-04-24T07:56:36;12.80;76.80
3069;DHT22;1545;51.728;8.796;2023-04-24T07:59:04;13.00;76.50
3069;DHT22;1545;51.728;8.796;2023-04-24T08:01:30;13.30;75.60
3069;DHT22;1545;51.728;8.796;2023-04-24T08:03:55;13.90;75.20
3069;DHT22;1545;51.728;8.796;2023-04-24T08:06:21;14.30;73.70
3069;DHT22;1545;51.728;8.796;2023-04-24T08:08:48;14.20;73.50
3069;DHT22;1545;51.728;8.796;2023-04-24T08:11:13;13.90;74.50
3069;DHT22;1545;51.728;8.796;2023-04-24T08:13:39;13.60;74.90
3069;DHT22;1545;51.728;8.796;2023-04-24T08:16:05;13.40;75.50
3069;DHT22;1545;51.728;8.796;2023-04-24T08:18:30;13.20;75.80
3069;DHT22;1545;51.728;8.796;2023-04-24T08:20:56;13.00;76.50
3069;DHT22;1545;51.728;8.796;2023-04-24T08:23:26;12.90;77.40
3069;DHT22;1545;51.728;8.796;2023-04-24T08:25:52;12.90;77.10
3069;DHT22;1545;51.728;8.796;2023-04-24T08:28:17;12.90;76.80
3069;DHT22;1545;51.728;8.796;2023-04-24T08:30:46;12.90;76.80
3069;DHT22;1545;51.728;8.796;2023-04-24T08:33:12;12.90;76.90
3069;DHT22;1545;51.728;8.796;2023-04-24T08:35:38;12.90;77.30
3069;DHT22;1545;51.728;8.796;2023-04-24T08:38:04;12.90;76.70
3069;DHT22;1545;51.728;8.796;2023-04-24T08:40:31;12.80;77.20
3069;DHT22;1545;51.728;8.796;2023-04-24T08:42:59;12.80;76.70
3069;DHT22;1545;51.728;8.796;2023-04-24T08:45:25;12.70;76.70
3069;DHT22;1545;51.728;8.796;2023-04-24T08:47:52;12.70;77.50
3069;DHT22;1545;51.728;8.796;2023-04-24T08:50:19;12.60;78.00
3069;DHT22;1545;51.728;8.796;2023-04-24T08:52:45;12.70;77.10
3069;DHT22;1545;51.728;8.796;2023-04-24T08:55:10;12.70;76.70
3069;DHT22;1545;51.728;8.796;2023-04-24T08:57:36;12.80;77.30
3069;DHT22;1545;51.728;8.796;2023-04-24T09:00:04;13.10;76.30
3069;DHT22;1545;51.728;8.796;2023-04-24T09:02:30;13.50;75.80
3069;DHT22;1545;51.728;8.796;2023-04-24T09:04:57;14.50;73.70
3069;DHT22;1545;51.728;8.796;2023-04-24T09:07:24;15.40;70.70
3069;DHT22;1545;51.728;8.796;2023-04-24T09:09:51;15.80;68.10
3069;DHT22;1545;51.728;8.796;2023-04-24T09:12:17;15.60;68.40
3069;DHT22;1545;51.728;8.796;2023-04-24T09:14:45;15.20;69.00
3069;DHT22;1545;51.728;8.796;2023-04-24T09:17:11;14.70;71.10
3069;DHT22;1545;51.728;8.796;2023-04-24T09:19:37;14.20;73.40
3069;DHT22;1545;51.728;8.796;2023-04-24T09:22:06;13.80;74.50
3069;DHT22;1545;51.728;8.796;2023-04-24T09:24:34;13.40;75.50
3069;DHT22;1545;51.728;8.796;2023-04-24T09:27:01;13.30;76.00
3069;DHT22;1545;51.728;8.796;2023-04-24T09:29:29;13.10;75.50
3069;DHT22;1545;51.728;8.796;2023-04-24T09:31:54;12.90;75.80
3069;DHT22;1545;51.728;8.796;2023-04-24T09:34:25;12.90;76.30
3069;DHT22;1545;51.728;8.796;2023-04-24T09:36:51;12.90;76.40
3069;DHT22;1545;51.728;8.796;2023-04-24T09:39:18;13.00;76.70
3069;DHT22;1545;51.728;8.796;2023-04-24T09:41:55;13.10;76.20
3069;DHT22;1545;51.728;8.796;2023-04-24T09:44:27;13.20;76.00
3069;DHT22;1545;51.728;8.796;2023-04-24T09:46:55;13.20;76.50
3069;DHT22;1545;51.728;8.796;2023-04-24T09:49:28;12.90;76.50
3069;DHT22;1545;51.728;8.796;2023-04-24T09:52:09;12.80;77.90
3069;DHT22;1545;51.728;8.796;2023-04-24T09:54:35;12.50;78.40
3069;DHT22;1545;51.728;8.796;2023-04-24T09:57:02;12.40;79.00
3069;DHT22;1545;51.728;8.796;2023-04-24T09:59:27;12.40;78.90
3069;DHT22;1545;51.728;8.796;2023-04-24T10:01:53;12.50;78.90
3069;DHT22;1545;51.728;8.796;2023-04-24T10:04:23;12.60;79.00
3069;DHT22;1545;51.728;8.796;2023-04-24T10:06:50;13.00;78.90
3069;DHT22;1545;51.728;8.796;2023-04-24T10:09:20;13.20;79.20
3069;DHT22;1545;51.728;8.796;2023-04-24T10:11:48;13.20;80.20
3069;DHT22;1545;51.728;8.796;2023-04-24T10:14:18;13.30;80.20
3069;DHT22;1545;51.728;8.796;2023-04-24T10:16:44;13.40;78.70
3069;DHT22;1545;51.728;8.796;2023-04-24T10:19:13;13.60;77.90
3069;DHT22;1545;51.728;8.796;2023-04-24T10:21:40;13.50;77.30
3069;DHT22;1545;51.728;8.796;2023-04-24T10:24:08;13.30;77.60
3069;DHT22;1545;51.728;8.796;2023-04-24T10:26:35;12.70;80.40
3069;DHT22;1545;51.728;8.796;2023-04-24T10:29:01;12.00;81.20
3069;DHT22;1545;51.728;8.796;2023-04-24T10:31:29;11.60;82.90
3069;DHT22;1545;51.728;8.796;2023-04-24T10:33:56;11.20;84.70
3069;DHT22;1545;51.728;8.796;2023-04-24T10:36:24;11.20;84.70
3069;DHT22;1545;51.728;8.796;2023-04-24T10:38:52;11.50;85.40
3069;DHT22;1545;51.728;8.796;2023-04-24T10:41:21;12.30;84.40
3069;DHT22;1545;51.728;8.796;2023-04-24T10:44:23;12.90;81.30
3069;DHT22;1545;51.728;8.796;2023-04-24T10:46:53;12.90;79.20
3069;DHT22;1545;51.728;8.796;2023-04-24T10:49:28;12.20;78.70
3069;DHT22;1545;51.728;8.796;2023-04-24T10:52:00;11.70;80.50
3069;DHT22;1545;51.728;8.796;2023-04-24T10:54:42;11.60;80.50
3069;DHT22;1545;51.728;8.796;2023-04-24T10:59:49;11.30;81.20
3069;DHT22;1545;51.728;8.796;2023-04-24T11:02:16;11.10;81.40
3069;DHT22;1545;51.728;8.796;2023-04-24T11:04:42;10.80;82.80
3069;DHT22;1545;51.728;8.796;2023-04-24T11:07:11;10.60;83.70
3069;DHT22;1545;51.728;8.796;2023-04-24T11:09:38;10.40;84.00
3069;DHT22;1545;51.728;8.796;2023-04-24T11:12:10;10.30;83.90
3069;DHT22;1545;51.728;8.796;2023-04-24T11:17:37;10.20;83.50
3069;DHT22;1545;51.728;8.796;2023-04-24T11:20:08;10.10;83.80
3069;DHT22;1545;51.728;8.796;2023-04-24T11:22:35;10.10;83.90
3069;DHT22;1545;51.728;8.796;2023-04-24T11:25:02;10.10;84.30
3069;DHT22;1545;51.728;8.796;2023-04-24T11:27:31;10.00;85.50
3069;DHT22;1545;51.728;8.796;2023-04-24T11:35:02;10.50;88.00
3069;DHT22;1545;51.728;8.796;2023-04-24T11:37:37;10.70;87.90
3069;DHT22;1545;51.728;8.796;2023-04-24T11:40:05;10.80;88.30
3069;DHT22;1545;51.728;8.796;2023-04-24T11:42:38;10.70;89.40
3069;DHT22;1545;51.728;8.796;2023-04-24T11:45:18;10.60;89.90
3069;DHT22;1545;51.728;8.796;2023-04-24T11:47:45;10.60;91.60
3069;DHT22;1545;51.728;8.796;2023-04-24T11:50:12;10.70;89.60
3069;DHT22;1545;51.728;8.796;2023-04-24T11:52:40;10.70;89.90
3069;DHT22;1545;51.728;8.796;2023-04-24T11:57:43;10.80;90.60
3069;DHT22;1545;51.728;8.796;2023-04-24T12:00:24;10.80;89.40
3069;DHT22;1545;51.728;8.796;2023-04-24T12:02:51;10.80;90.30
3069;DHT22;1545;51.728;8.796;2023-04-24T12:05:26;10.60;89.80
3069;DHT22;1545;51.728;8.796;2023-04-24T12:07:53;10.60;90.90
3069;DHT22;1545;51.728;8.796;2023-04-24T12:10:23;10.30;90.90
3069;DHT22;1545;51.728;8.796;2023-04-24T12:12:49;10.00;92.00
3069;DHT22;1545;51.728;8.796;2023-04-24T12:15:17;9.80;92.70
3069;DHT22;1545;51.728;8.796;2023-04-24T12:17:43;9.60;94.50
3069;DHT22;1545;51.728;8.796;2023-04-24T12:20:09;9.50;94.00
3069;DHT22;1545;51.728;8.796;2023-04-24T12:22:48;9.30;93.90
3069;DHT22;1545;51.728;8.796;2023-04-24T12:25:16;9.20;93.30
3069;DHT22;1545;51.728;8.796;2023-04-24T12:27:42;9.20;94.50
3069;DHT22;1545;51.728;8.796;2023-04-24T12:30:15;9.10;95.60
3069;DHT22;1545;51.728;8.796;2023-04-24T12:32:42;9.20;96.20
3069;DHT22;1545;51.728;8.796;2023-04-24T12:35:08;9.10;95.70
3069;DHT22;1545;51.728;8.796;2023-04-24T12:37:34;9.20;96.50
3069;DHT22;1545;51.728;8.796;2023-04-24T12:42:29;9.10;96.90
3069;DHT22;1545;51.728;8.796;2023-04-24T12:45:00;9.10;96.80
3069;DHT22;1545;51.728;8.796;2023-04-24T12:47:27;9.10;96.50
3069;DHT22;1545;51.728;8.796;2023-04-24T12:49:53;9.30;96.90
3069;DHT22;1545;51.728;8.796;2023-04-24T12:52:23;9.40;96.30
3069;DHT22;1545;51.728;8.796;2023-04-24T12:54:50;9.30;95.90
3069;DHT22;1545;51.728;8.796;2023-04-24T12:57:16;9.20;96.50
3069;DHT22;1545;51.728;8.796;2023-04-24T12:59:42;9.20;97.60
3069;DHT22;1545;51.728;8.796;2023-04-24T13:02:07;9.00;97.50
3069;DHT22;1545;51.728;8.796;2023-04-24T13:04:34;8.80;97.70
3069;DHT22;1545;51.728;8.796;2023-04-24T13:07:00;9.00;98.60
3069;DHT22;1545;51.728;8.796;2023-04-24T13:09:25;9.10;97.90
3069;DHT22;1545;51.728;8.796;2023-04-24T13:11:51;9.10;96.90
3069;DHT22;1545;51.728;8.796;2023-04-24T13:14:16;9.10;96.80
3069;DHT22;1545;51.728;8.796;2023-04-24T13:16:41;9.10;96.50
3069;DHT22;1545;51.728;8.796;2023-04-24T13:19:07;9.40;98.10
3069;DHT22;1545;51.728;8.796;2023-04-24T13:21:32;9.40;96.20
3069;DHT22;1545;51.728;8.796;2023-04-24T13:23:58;9.60;96.90
3069;DHT22;1545;51.728;8.796;2023-04-24T13:26:24;9.60;94.40
3069;DHT22;1545;51.728;8.796;2023-04-24T13:28:50;9.60;94.60
3069;DHT22;1545;51.728;8.796;2023-04-24T13:31:15;9.60;94.30
3069;DHT22;1545;51.728;8.796;2023-04-24T13:33:41;9.50;93.40
3069;DHT22;1545;51.728;8.796;2023-04-24T13:36:07;9.50;94.90
3069;DHT22;1545;51.728;8.796;2023-04-24T13:38:34;9.60;94.30
3069;DHT22;1545;51.728;8.796;2023-04-24T13:40:59;9.70;94.70
3069;DHT22;1545;51.728;8.796;2023-04-24T13:43:25;9.80;94.00
3069;DHT22;1545;51.728;8.796;2023-04-24T13:45:51;9.80;92.10
3069;DHT22;1545;51.728;8.796;2023-04-24T13:48:16;9.80;92.60
3069;DHT22;1545;51.728;8.796;2023-04-24T13:50:42;9.90;93.10
3069;DHT22;1545;51.728;8.796;2023-04-24T13:53:08;9.90;93.60
3069;DHT22;1545;51.728;8.796;2023-04-24T13:55:33;9.90;92.70
3069;DHT22;1545;51.728;8.796;2023-04-24T13:57:59;9.90;93.30
3069;DHT22;1545;51.728;8.796;2023-04-24T14:00:26;9.80;94.10
3069;DHT22;1545;51.728;8.796;2023-04-24T14:02:52;9.80;94.70
3069;DHT22;1545;51.728;8.796;2023-04-24T14:05:18;9.90;94.90
3069;DHT22;1545;51.728;8.796;2023-04-24T14:07:43;9.90;94.70
3069;DHT22;1545;51.728;8.796;2023-04-24T14:10:09;9.90;94.50
3069;DHT22;1545;51.728;8.796;2023-04-24T14:12:35;10.00;94.80
3069;DHT22;1545;51.728;8.796;2023-04-24T14:15:01;10.10;94.10
3069;DHT22;1545;51.728;8.796;2023-04-24T14:17:27;10.20;94.40
3069;DHT22;1545;51.728;8.796;2023-04-24T14:19:52;10.10;94.20
3069;DHT22;1545;51.728;8.796;2023-04-24T14:22:21;10.10;94.80
3069;DHT22;1545;51.728;8.796;2023-04-24T14:24:46;10.00;95.00
3069;DHT22;1545;51.728;8.796;2023-04-24T14:27:12;9.90;95.30
3069;DHT22;1545;51.728;8.796;2023-04-24T14:29:37;9.80;95.70
3069;DHT22;1545;51.728;8.796;2023-04-24T14:32:03;9.80;96.10
3069;DHT22;1545;51.728;8.796;2023-04-24T14:34:28;9.90;95.40
3069;DHT22;1545;51.728;8.796;2023-04-24T14:36:54;10.00;95.50
3069;DHT22;1545;51.728;8.796;2023-04-24T14:39:20;10.10;94.50
3069;DHT22;1545;51.728;8.796;2023-04-24T14:41:45;10.00;93.50
3069;DHT22;1545;51.728;8.796;2023-04-24T14:44:11;9.90;93.20
3069;DHT22;1545;51.728;8.796;2023-04-24T14:46:36;9.70;93.40
3069;DHT22;1545;51.728;8.796;2023-04-24T14:49:02;9.70;93.40
3069;DHT22;1545;51.728;8.796;2023-04-24T14:51:28;9.80;93.00
3069;DHT22;1545;51.728;8.796;2023-04-24T14:53:53;9.80;93.00
3069;DHT22;1545;51.728;8.796;2023-04-24T14:56:18;9.80;92.30
3069;DHT22;1545;51.728;8.796;2023-04-24T14:58:44;9.90;91.00
3069;DHT22;1545;51.728;8.796;2023-04-24T15:01:10;10.10;90.40
3069;DHT22;1545;51.728;8.796;2023-04-24T15:03:36;10.20;89.70
3069;DHT22;1545;51.728;8.796;2023-04-24T15:06:01;10.20;87.50
3069;DHT22;1545;51.728;8.796;2023-04-24T15:08:27;10.10;87.70
3069;DHT22;1545;51.728;8.796;2023-04-24T15:10:52;10.20;89.00
3069;DHT22;1545;51.728;8.796;2023-04-24T15:13:18;10.10;87.80
3069;DHT22;1545;51.728;8.796;2023-04-24T15:15:46;10.10;86.90
3069;DHT22;1545;51.728;8.796;2023-04-24T15:18:11;10.10;87.60
3069;DHT22;1545;51.728;8.796;2023-04-24T15:20:38;10.10;87.90
3069;DHT22;1545;51.728;8.796;2023-04-24T15:23:08;10.10;87.80
3069;DHT22;1545;51.728;8.796;2023-04-24T15:25:34;10.10;87.70
3069;DHT22;1545;51.728;8.796;2023-04-24T15:28:00;10.10;87.40
3069;DHT22;1545;51.728;8.796;2023-04-24T15:30:27;10.00;86.80
3069;DHT22;1545;51.728;8.796;2023-04-24T15:32:52;9.80;87.00
3069;DHT22;1545;51.728;8.796;2023-04-24T15:35:18;9.80;87.80
3069;DHT22;1545;51.728;8.796;2023-04-24T15:37:44;9.80;87.80
3069;DHT22;1545;51.728;8.796;2023-04-24T15:40:10;9.80;87.60
3069;DHT22;1545;51.728;8.796;2023-04-24T15:42:38;9.90;87.40
3069;DHT22;1545;51.728;8.796;2023-04-24T15:45:04;9.80;85.30
3069;DHT22;1545;51.728;8.796;2023-04-24T15:47:30;9.90;86.50
3069;DHT22;1545;51.728;8.796;2023-04-24T15:49:57;9.80;87.00
3069;DHT22;1545;51.728;8.796;2023-04-24T15:52:22;9.70;87.20
3069;DHT22;1545;51.728;8.796;2023-04-24T15:54:48;9.70;87.20
3069;DHT22;1545;51.728;8.796;2023-04-24T15:57:14;9.60;87.20
3069;DHT22;1545;51.728;8.796;2023-04-24T15:59:40;9.60;86.90
3069;DHT22;1545;51.728;8.796;2023-04-24T16:02:06;9.70;87.00
3069;DHT22;1545;51.728;8.796;2023-04-24T16:04:33;9.60;87.30
3069;DHT22;1545;51.728;8.796;2023-04-24T16:06:59;9.50;88.70
3069;DHT22;1545;51.728;8.796;2023-04-24T16:09:25;9.40;89.90
3069;DHT22;1545;51.728;8.796;2023-04-24T16:11:51;9.30;90.40
3069;DHT22;1545;51.728;8.796;2023-04-24T16:14:16;9.30;91.40
3069;DHT22;1545;51.728;8.796;2023-04-24T16:16:42;9.20;92.30